Data for 06/27/2005

Time Sea-Level Adjusted Pressure Absolute Pressure Temperature Relative Humidity Dew Point   
(mb) (inHg) (mb) (inHg) (C) (F) (%) (C) (F)
00:05 1016 30 845 24.95 9.5 49.1 88 7.7 45.8
00:10 1016 30 845 24.95 9.5 49 88 7.5 45.6
00:15 1016 30 845 24.95 9.3 48.8 88 7.4 45.3
00:20 1016 30 845 24.95 9.3 48.7 87 7.2 45
00:25 1016 30 845 24.95 9.4 48.9 86 7.3 45.1
00:30 1016 30 845 24.95 9.6 49.2 86 7.3 45.1
00:35 1016 30 845 24.95 9.6 49.3 87 7.5 45.5
00:40 1016 30 845 24.95 9.5 49 87 7.5 45.5
00:45 1016 30 845 24.95 9.2 48.5 88 7.4 45.2
00:50 1016 30 845 24.95 9 48.2 89 7.4 45.2
00:55 1016 30 845 24.95 8.9 48.1 89 7.2 45
01:00 1016 30 845 24.95 8.9 48 90 7.3 45.2
01:05 1016 30 845 24.95 8.8 47.8 90 7.3 45.1
01:10 1016 30 845 24.95 8.8 47.8 90 7.2 45
01:15 1016 30 845 24.95 8.6 47.5 91 7.3 45.1
01:20 1016 30 845 24.95 8.6 47.4 91 7.2 45
01:25 1016 30 845 24.95 8.6 47.6 90 7.1 44.8
01:30 1016 30 845 24.95 8.9 48 88 7 44.6
01:35 1016 30 845 24.95 9.1 48.3 87 7 44.6
01:40 1016 30 845 24.95 9.1 48.4 88 7.2 44.9
01:45 1015 29.97 845 24.95 8.7 47.6 89 7 44.5
01:50 1015 29.97 845 24.95 8.6 47.4 90 7 44.5
01:55 1016 30 845 24.95 8.4 47 91 6.9 44.5
02:00 1016 30 845 24.95 8.3 47 90 6.8 44.3
02:05 1016 30 845 24.95 8.4 47.1 91 7.1 44.7
02:10 1016 30 845 24.95 8.4 47 92 7.1 44.8
02:15 1015 29.97 845 24.95 8.4 47.1 92 7.2 45
02:20 1015 29.97 845 24.95 8.3 46.9 93 7.2 44.9
02:25 1015 29.97 845 24.95 8.3 46.9 93 7.2 44.9
02:30 1015 29.97 844 24.92 8.3 47 92 7.2 44.9
02:35 1015 29.97 845 24.95 8.3 47 92 7.1 44.8
02:40 1015 29.97 845 24.95 8.3 46.9 93 7.1 44.8
02:45 1015 29.97 845 24.95 8 46.4 93 6.9 44.4
02:50 1015 29.97 845 24.95 7.8 46.1 93 6.7 44.1
02:55 1015 29.97 845 24.95 8 46.4 91 6.6 43.8
03:00 1015 29.97 845 24.95 8.2 46.7 90 6.7 44
03:05 1015 29.97 845 24.95 8.4 47.2 88 6.6 44
03:10 1016 30 845 24.95 8.6 47.5 89 6.8 44.3
03:15 1015 29.97 845 24.95 8.5 47.4 88 6.7 44.1
03:20 1015 29.97 845 24.95 8.7 47.7 88 6.8 44.3
03:25 1016 30 845 24.95 8.1 46.5 91 6.7 44.1
03:30 1016 30 845 24.95 7.8 46.1 91 6.5 43.8
03:35 1016 30 845 24.95 7.9 46.2 90 6.3 43.4
03:40 1016 30 845 24.95 7.8 46 91 6.4 43.6
03:45 1016 30 845 24.95 7.7 45.8 91 6.2 43.2
03:50 1016 30 845 24.95 7.7 45.9 91 6.3 43.3
03:55 1016 30 845 24.95 7.8 46.1 90 6.3 43.3
04:00 1016 30 845 24.95 7.9 46.2 89 6.2 43.2
04:05 1016 30 845 24.95 7.9 46.3 90 6.4 43.5
04:10 1016 30 845 24.95 8.4 47.2 87 6.4 43.5
04:15 1016 30 845 24.95 8.5 47.4 87 6.5 43.7
04:20 1016 30 845 24.95 8.6 47.4 86 6.4 43.6
04:25 1016 30 845 24.95 8.5 47.4 87 6.5 43.6
04:30 1016 30 845 24.95 8.4 47 87 6.4 43.5
04:35 1016 30 845 24.95 7.9 46.3 90 6.4 43.5
04:40 1016 30 845 24.95 7.6 45.8 90 6.2 43.1
04:45 1016 30 845 24.95 7.6 45.8 90 6.2 43.1
04:50 1016 30 845 24.95 7.5 45.5 91 6.1 43.1
04:55 1016 30 845 24.95 7.2 45 92 6 42.8
05:00 1016 30 845 24.95 7 44.7 93 5.9 42.7
05:05 1016 30 845 24.95 7.1 44.7 92 5.9 42.6
05:10 1016 30 845 24.95 7 44.6 92 5.9 42.6
05:15 1016 30 845 24.95 7.1 44.9 92 5.9 42.6
05:20 1016 30 845 24.95 7.2 45 92 6 42.8
05:25 1016 30 845 24.95 7.2 44.9 93 6 42.9
05:30 1016 30 845 24.95 7.3 45.1 92 6.1 42.9
05:35 1016 30 845 24.95 7.5 45.5 90 6 42.8
05:40 1016 30 845 24.95 7.5 45.5 90 6 42.8
05:45 1016 30 845 24.95 7.5 45.5 90 6 42.8
05:50 1016 30 845 24.95 7.5 45.5 90 5.9 42.7
05:55 1016 30 845 24.95 7.5 45.4 90 5.9 42.6
06:00 1016 30 845 24.95 7.9 46.2 87 5.9 42.6
06:05 1016 30 845 24.95 8 46.4 87 6.1 42.9
06:10 1016 30 845 24.95 8 46.3 87 6 42.8
06:15 1016 30 845 24.95 7.7 45.8 89 5.9 42.7
06:20 1016 30 845 24.95 7.6 45.7 88 5.8 42.5
06:25 1016 30 845 24.95 7.5 45.5 89 5.8 42.5
06:30 1016 30 845 24.95 7.5 45.6 89 5.9 42.6
06:35 1016 30 845 24.95 7.8 46 88 5.9 42.7
06:40 1016 30 845 24.95 8.2 46.8 86 6 42.8
06:45 1016 30 845 24.95 8.4 47.1 86 6.2 43.1
06:50 1016 30 845 24.95 8.7 47.6 85 6.4 43.4
06:55 1016 30 845 24.95 8.8 47.9 85 6.4 43.6
07:00 1016 30 845 24.95 9.1 48.3 84 6.5 43.7
07:05 1016 30 845 24.95 9.3 48.7 84 6.7 44.1
07:10 1016 30 845 24.95 9.8 49.6 83 7 44.6
07:15 1016 30 845 24.95 10.1 50.2 81 7.1 44.8
07:20 1016 30 845 24.95 10.5 50.8 81 7.3 45.1
07:25 1016 30 845 24.95 10.4 50.7 81 7.3 45.2
07:30 1016 30 845 24.95 10.9 51.6 79 7.3 45.2
07:35 1016 30 845 24.95 11.1 52 79 7.6 45.6
07:40 1016 30 845 24.95 11.3 52.3 79 7.8 46
07:45 1016 30 845 24.95 11.7 53.1 77 7.7 45.9
07:50 1016 30 845 24.95 12.2 54 76 8.2 46.7
07:55 1016 30 845 24.95 12.4 54.3 76 8.3 46.9
08:00 1016 30 845 24.95 12.7 54.8 76 8.6 47.5
08:05 1016 30 845 24.95 13 55.4 75 8.7 47.7
08:10 1016 30 845 24.95 13 55.3 74 8.5 47.2
08:15 1016 30 845 24.95 13.6 56.4 73 8.8 47.8
08:20 1016 30 845 24.95 13.3 56 75 9 48.2
08:25 1016 30 845 24.95 13.2 55.8 74 8.7 47.6
08:30 1016 30 845 24.95 13.2 55.7 74 8.6 47.5
08:35 1016 30 846 24.98 13.1 55.6 74 8.7 47.7
08:40 1016 30 845 24.95 13.2 55.7 75 8.9 48.1
08:45 1016 30 845 24.95 12.8 55 76 8.7 47.7
08:50 1016 30 845 24.95 12.5 54.4 77 8.6 47.5
08:55 1016 30 845 24.95 12.1 53.7 81 9 48.1
09:00 1016 30 845 24.95 11.9 53.5 81 8.8 47.9
09:05 1016 30 845 24.95 12.6 54.6 77 8.7 47.7
09:10 1016 30 845 24.95 12.6 54.7 77 8.7 47.7
09:15 1016 30 845 24.95 13.1 55.5 73 8.4 47.2
09:20 1016 30 845 24.95 13.8 56.9 73 9.1 48.4
09:25 1016 30 845 24.95 13.6 56.5 74 9.1 48.4
09:30 1016 30 845 24.95 13.5 56.3 73 8.8 47.8
09:35 1016 30 845 24.95 14.3 57.7 69 8.7 47.7
09:40 1016 30 845 24.95 14.7 58.5 68 8.9 47.9
09:45 1016 30 845 24.95 14.5 58.2 67 8.5 47.3
09:50 1016 30 845 24.95 14.9 58.8 67 8.8 47.9
09:55 1016 30 845 24.95 15 59 66 8.7 47.6
10:00 1016 30 845 24.95 15.1 59.3 67 9.1 48.4
10:05 1016 30 845 24.95 14.5 58.1 71 9.3 48.8
10:10 1016 30 845 24.95 14.6 58.2 68 8.9 48
10:15 1016 30 845 24.95 15.4 59.6 65 9 48.2
10:20 1016 30 845 24.95 15.8 60.5 66 9.5 49.1
10:25 1016 30 845 24.95 16.3 61.3 63 9.2 48.6
10:30 1016 30 845 24.95 16.5 61.7 64 9.7 49.4
10:35 1016 30 845 24.95 16.5 61.7 65 9.9 49.9
10:40 1016 30 845 24.95 16 60.8 64 9.3 48.7
10:45 1016 30 845 24.95 16.1 61.1 65 9.6 49.2
10:50 1016 30 845 24.95 17 62.6 63 10 50
10:55 1016 30 845 24.95 17.4 63.4 61 9.9 49.8
11:00 1016 30 845 24.95 17.7 63.8 63 10.6 51.1
11:05 1016 30 845 24.95 18 64.4 58 9.7 49.5
11:10 1016 30 845 24.95 17.4 63.4 64 10.6 51.1
11:15 1015 29.97 845 24.95 17.5 63.5 62 10.2 50.3
11:20 1015 29.97 845 24.95 18.4 65.1 58 10.2 50.3
11:25 1015 29.97 845 24.95 19.2 66.5 56 10.3 50.6
11:30 1015 29.97 845 24.95 18.4 65 61 10.7 51.3
11:35 1015 29.97 845 24.95 18.8 65.8 58 10.4 50.7
11:40 1015 29.97 844 24.92 18.9 66 60 11 51.8
11:45 1015 29.97 844 24.92 18.4 65.2 61 11 51.7
11:50 1015 29.97 844 24.92 18.4 65.2 60 10.5 50.9
11:55 1015 29.97 844 24.92 19.8 67.7 56 10.8 51.4
12:00 1015 29.97 844 24.92 19.3 66.7 59 11.1 52
12:05 1015 29.97 844 24.92 19.6 67.2 56 10.6 51.1
12:10 1015 29.97 844 24.92 20.3 68.5 53 10.5 50.9
12:15 1015 29.97 844 24.92 21.1 69.9 53 11.2 52.2
12:20 1015 29.97 844 24.92 20.8 69.4 54 11.3 52.3
12:25 1015 29.97 844 24.92 20.6 69.1 53 11 51.7
12:30 1015 29.97 844 24.92 20.8 69.4 54 11.3 52.4
12:35 1015 29.97 844 24.92 20.8 69.4 52 10.8 51.5
12:40 1015 29.97 844 24.92 20.8 69.4 53 10.9 51.6
12:45 1015 29.97 844 24.92 21.1 69.9 52 10.8 51.5
12:50 1015 29.97 844 24.92 21.1 69.9 54 11.5 52.7
12:55 1015 29.97 844 24.92 21 69.7 51 10.7 51.3
13:00 1015 29.97 844 24.92 20.6 69.1 52 10.6 51.1
13:05 1015 29.97 844 24.92 21.4 70.5 50 10.8 51.4
13:10 1015 29.97 844 24.92 21.6 70.9 49 10.6 51.1
13:15 1015 29.97 844 24.92 22.1 71.7 50 11.4 52.4
13:20 1015 29.97 844 24.92 21.7 71.1 49 10.7 51.3
13:25 1015 29.97 844 24.92 21.1 70 51 10.8 51.4
13:30 1015 29.97 844 24.92 20.5 68.8 51 10.2 50.3
13:35 1015 29.97 844 24.92 20.1 68.1 51 9.7 49.5
13:40 1015 29.97 844 24.92 19.7 67.4 49 8.8 47.8
13:45 1015 29.97 844 24.92 19.4 67 51 9 48.3
13:50 1015 29.97 844 24.92 19.1 66.4 51 8.8 47.8
13:55 1015 29.97 844 24.92 19 66.1 53 9.4 48.9
14:00 1015 29.97 844 24.92 19 66.2 54 9.8 49.6
14:05 1015 29.97 844 24.92 18.4 65.1 59 10.4 50.7
14:10 1014 29.94 844 24.92 18.1 64.6 60 10.3 50.6
14:15 1014 29.94 843 24.89 18.2 64.7 59 10.2 50.3
14:20 1014 29.94 843 24.89 18.1 64.5 61 10.6 51
14:25 1014 29.94 843 24.89 18.1 64.5 61 10.5 50.9
14:30 1014 29.94 843 24.89 18.2 64.7 61 10.6 51
14:35 1014 29.94 843 24.89 18.1 64.6 62 10.7 51.2
14:40 1014 29.94 843 24.89 18.1 64.5 62 10.7 51.3
14:45 1014 29.94 843 24.89 18 64.5 62 10.7 51.3
14:50 1014 29.94 843 24.89 18 64.4 62 10.8 51.4
14:55 1014 29.94 843 24.89 18.5 65.2 61 11 51.8
15:00 1014 29.94 843 24.89 18.4 65.2 61 11 51.8
15:05 1014 29.94 843 24.89 18.6 65.4 63 11.5 52.6
15:10 1014 29.94 843 24.89 18.2 64.8 63 11.2 52.1
15:15 1014 29.94 843 24.89 18.2 64.7 63 11.2 52.2
15:20 1014 29.94 843 24.89 18.3 64.9 63 11.1 52
15:25 1014 29.94 843 24.89 18.1 64.5 63 11.1 51.9
15:30 1014 29.94 844 24.92 17.8 64 66 11.3 52.4
15:35 1015 29.97 844 24.92 17.7 63.8 64 10.8 51.4
15:40 1015 29.97 844 24.92 17.1 62.8 71 11.8 53.3
15:45 1015 29.97 844 24.92 16.4 61.4 76 12.2 54
15:50 1015 29.97 844 24.92 17.1 62.8 71 11.9 53.4
15:55 1015 29.97 844 24.92 17 62.5 77 13 55.5
16:00 1015 29.97 844 24.92 17 62.5 73 12.1 53.7
16:05 1014 29.94 843 24.89 16.8 62.2 72 11.8 53.2
16:10 1014 29.94 844 24.92 16.7 62 73 11.9 53.4
16:15 1014 29.94 844 24.92 16.6 61.8 72 11.7 53
16:20 1014 29.94 843 24.89 16.7 62 74 12 53.6
16:25 1014 29.94 843 24.89 16.8 62.3 73 12 53.6
16:30 1014 29.94 843 24.89 17 62.6 72 12 53.7
16:35 1014 29.94 843 24.89 17.2 63 73 12.4 54.3
16:40 1014 29.94 843 24.89 17 62.7 74 12.5 54.4
16:45 1014 29.94 843 24.89 16.9 62.3 73 12.1 53.8
16:50 1014 29.94 843 24.89 17 62.7 69 11.4 52.5
16:55 1014 29.94 843 24.89 17.1 62.9 65 10.5 51
17:00 1014 29.94 843 24.89 17.3 63.1 65 10.7 51.3
17:05 1014 29.94 843 24.89 17.5 63.5 64 10.6 51
17:10 1014 29.94 843 24.89 17.8 64 61 10.3 50.6
17:15 1014 29.94 843 24.89 17.6 63.7 63 10.6 51
17:20 1014 29.94 843 24.89 17.5 63.6 61 10 50
17:25 1013 29.91 843 24.89 17.5 63.5 61 10.1 50.2
17:30 1013 29.91 843 24.89 17.5 63.5 60 9.8 49.6
17:35 1013 29.91 843 24.89 17.5 63.5 62 10.2 50.3
17:40 1013 29.91 843 24.89 17.4 63.4 63 10.4 50.8
17:45 1013 29.91 843 24.89 17.3 63.1 65 10.7 51.3
17:50 1014 29.94 843 24.89 17.1 62.8 65 10.5 50.8
17:55 1014 29.94 843 24.89 17.1 62.8 66 10.8 51.5
18:00 1014 29.94 843 24.89 16.9 62.4 68 11.1 51.9
18:05 1014 29.94 843 24.89 16.8 62.3 67 10.7 51.3
18:10 1014 29.94 843 24.89 16.7 62 73 11.9 53.4
18:15 1013 29.91 843 24.89 16.8 62.2 69 11.2 52.2
18:20 1013 29.91 842 24.86 17 62.7 69 11.4 52.5
18:25 1013 29.91 842 24.86 17.1 62.7 70 11.6 52.9
18:30 1013 29.91 842 24.86 17.1 62.7 66 10.7 51.2
18:35 1013 29.91 842 24.86 16.8 62.3 67 10.7 51.2
18:40 1013 29.91 842 24.86 16.5 61.7 68 10.6 51.1
18:45 1013 29.91 842 24.86 16.6 61.8 59 8.5 47.3
18:50 1013 29.91 842 24.86 17.8 64.1 53 8.3 47
18:55 1013 29.91 842 24.86 18.3 64.9 53 8.6 47.5
19:00 1013 29.91 842 24.86 17.9 64.2 63 10.8 51.5
19:05 1013 29.91 842 24.86 17.1 62.8 50 6.8 44.2
19:10 1013 29.91 842 24.86 18.5 65.3 51 8.3 47
19:15 1013 29.91 842 24.86 19.4 66.8 45 7.4 45.3
19:20 1013 29.91 842 24.86 19.3 66.8 47 7.8 46.1
19:25 1013 29.91 842 24.86 19 66.1 54 9.6 49.4
19:30 1013 29.91 842 24.86 18.1 64.5 57 9.6 49.3
19:35 1013 29.91 843 24.89 17.7 63.9 58 9.4 48.9
19:40 1014 29.94 843 24.89 18.2 64.7 51 8.1 46.5
19:45 1014 29.94 843 24.89 17.2 63 60 9.5 49.1
19:50 1014 29.94 843 24.89 15.4 59.8 70 10 50
19:55 1014 29.94 843 24.89 14 57.2 73 9.3 48.7
20:00 1015 29.97 844 24.92 13.2 55.8 73 8.5 47.4
20:05 1014 29.94 844 24.92 13.2 55.8 75 8.9 48
20:10 1014 29.94 843 24.89 13.2 55.7 75 8.8 47.9
20:15 1014 29.94 843 24.89 13.1 55.5 79 9.6 49.2
20:20 1014 29.94 843 24.89 13 55.5 76 8.9 48.1
20:25 1014 29.94 843 24.89 12.8 55.1 77 9 48.2
20:30 1014 29.94 843 24.89 12.8 55 74 8.4 47.1
20:35 1014 29.94 844 24.92 13.1 55.6 71 8.1 46.6
20:40 1015 29.97 844 24.92 13.5 56.3 68 7.7 45.9
20:45 1015 29.97 844 24.92 13.8 56.8 70 8.5 47.3
20:50 1015 29.97 844 24.92 13.7 56.7 71 8.6 47.5
20:55 1015 29.97 844 24.92 13.8 56.8 75 9.5 49.1
21:00 1015 29.97 844 24.92 13.8 56.9 69 8.3 47
21:05 1015 29.97 844 24.92 13.8 56.9 75 9.5 49.1
21:10 1015 29.97 844 24.92 13.7 56.7 74 9.3 48.7
21:15 1015 29.97 844 24.92 13.7 56.7 74 9.2 48.5
21:20 1015 29.97 844 24.92 13.7 56.6 77 9.8 49.6
21:25 1015 29.97 844 24.92 13.3 55.9 71 8.2 46.8
21:30 1015 29.97 844 24.92 13.8 56.8 70 8.4 47.2
21:35 1015 29.97 844 24.92 14.1 57.4 69 8.5 47.2
21:40 1015 29.97 844 24.92 14.3 57.7 70 8.9 48
21:45 1015 29.97 844 24.92 14.3 57.7 70 8.9 48.1
21:50 1015 29.97 844 24.92 14.2 57.5 73 9.4 48.9
21:55 1015 29.97 844 24.92 13.8 56.8 77 9.9 49.8
22:00 1015 29.97 844 24.92 13.4 56.1 78 9.7 49.4
22:05 1015 29.97 844 24.92 13.1 55.6 78 9.3 48.8
22:10 1015 29.97 844 24.92 13.1 55.5 77 9.2 48.5
22:15 1015 29.97 844 24.92 13.1 55.7 77 9.2 48.6
22:20 1015 29.97 844 24.92 13.3 56 78 9.5 49.1
22:25 1015 29.97 844 24.92 13.3 56 75 8.9 48.1
22:30 1015 29.97 844 24.92 13.4 56.1 76 9.3 48.7
22:35 1015 29.97 844 24.92 13.3 56 77 9.5 49
22:40 1015 29.97 844 24.92 13 55.3 80 9.5 49.1
22:45 1015 29.97 844 24.92 12.8 55 80 9.5 49.1
22:50 1015 29.97 844 24.92 12.8 55 82 9.9 49.7
22:55 1015 29.97 844 24.92 12.5 54.4 81 9.4 48.9
23:00 1015 29.97 844 24.92 12.5 54.5 82 9.5 49.1
23:05 1015 29.97 844 24.92 12.4 54.4 82 9.4 48.9
23:10 1015 29.97 844 24.92 12.3 54.2 83 9.5 49.1
23:15 1015 29.97 844 24.92 12 53.6 87 9.8 49.7
23:20 1015 29.97 844 24.92 11.6 52.9 86 9.4 48.8
23:25 1015 29.97 844 24.92 11.4 52.6 88 9.5 49
23:30 1015 29.97 844 24.92 11.2 52.2 88 9.3 48.7
23:35 1015 29.97 844 24.92 11.2 52.1 88 9.2 48.6
23:40 1015 29.97 844 24.92 11.1 52 87 9.1 48.4
23:45 1015 29.97 844 24.92 11.2 52.1 85 8.7 47.7
23:50 1015 29.97 844 24.92 11.4 52.4 83 8.6 47.5
23:55 1015 29.97 844 24.92 11.3 52.4 84 8.7 47.7
24:00 1015 29.97 844 24.92 11.3 52.4 84 8.7 47.7